createdAt,value
2022-08-17T00:00:34.210Z,89.21
2022-08-17T00:03:13.636Z,89.17
2022-08-17T00:05:47.021Z,89.24
2022-08-17T00:08:17.021Z,88.98
2022-08-17T00:10:46.988Z,89.00
2022-08-17T00:13:19.476Z,89.10
2022-08-17T00:15:47.928Z,89.21
2022-08-17T00:19:01.269Z,89.33
2022-08-17T00:21:10.478Z,89.47
2022-08-17T00:23:44.253Z,89.60
2022-08-17T00:26:16.250Z,89.70
2022-08-17T00:29:04.902Z,89.61
2022-08-17T00:31:34.402Z,89.51
2022-08-17T00:34:03.982Z,89.62
2022-08-17T00:36:32.275Z,89.57
2022-08-17T00:38:59.925Z,89.55
2022-08-17T00:41:29.560Z,89.51
2022-08-17T00:44:02.127Z,89.53
2022-08-17T00:46:34.814Z,89.59
2022-08-17T00:49:03.491Z,89.68
2022-08-17T00:51:38.575Z,89.77
2022-08-17T00:54:15.089Z,89.76
2022-08-17T00:56:46.544Z,89.73
2022-08-17T00:59:19.459Z,89.73
2022-08-17T01:01:49.515Z,89.87
2022-08-17T01:04:20.269Z,89.86
2022-08-17T01:06:49.568Z,89.87
2022-08-17T01:09:19.184Z,89.92
2022-08-17T01:11:52.370Z,90.03
2022-08-17T01:14:23.147Z,90.16
2022-08-17T01:16:54.268Z,90.17
2022-08-17T01:19:34.313Z,90.16
2022-08-17T01:22:10.959Z,90.24
2022-08-17T01:24:42.907Z,90.30
2022-08-17T01:27:13.420Z,90.31
2022-08-17T01:29:45.560Z,90.25
2022-08-17T01:32:13.464Z,90.30
2022-08-17T01:34:42.613Z,90.20
2022-08-17T01:37:14.498Z,90.34
2022-08-17T01:39:52.755Z,90.51
2022-08-17T01:42:30.840Z,90.47
2022-08-17T01:45:04.360Z,90.43
2022-08-17T01:47:32.587Z,90.45
2022-08-17T01:50:15.781Z,90.47
2022-08-17T01:52:45.725Z,90.57
2022-08-17T01:55:17.142Z,90.56
2022-08-17T01:57:45.744Z,90.57
2022-08-17T02:00:14.270Z,90.45
2022-08-17T02:02:42.854Z,90.48
2022-08-17T02:05:10.620Z,90.50
2022-08-17T02:07:59.834Z,90.54
2022-08-17T02:10:34.252Z,90.57
2022-08-17T02:13:04.207Z,90.52
2022-08-17T02:15:32.340Z,90.53
2022-08-17T02:18:01.687Z,90.61
2022-08-17T02:20:41.660Z,90.51
2022-08-17T02:23:12.802Z,90.50
2022-08-17T02:25:44.965Z,90.53
2022-08-17T02:28:12.660Z,90.53
2022-08-17T02:31:01.205Z,90.56
2022-08-17T02:33:41.902Z,90.58
2022-08-17T02:36:12.870Z,90.39
2022-08-17T02:38:42.367Z,90.55
2022-08-17T02:41:10.491Z,90.67
2022-08-17T02:43:38.230Z,90.71
2022-08-17T02:46:06.056Z,90.66
2022-08-17T02:48:33.819Z,90.69
2022-08-17T02:51:01.567Z,90.67
2022-08-17T02:53:35.600Z,90.67
2022-08-17T02:56:04.686Z,90.67
2022-08-17T02:58:35.041Z,90.68
2022-08-17T03:01:08.233Z,90.76
2022-08-17T03:03:37.845Z,90.90
2022-08-17T03:06:07.784Z,90.85
2022-08-17T03:08:36.531Z,90.87
2022-08-17T03:11:04.455Z,90.85
2022-08-17T03:13:32.499Z,90.84
2022-08-17T03:16:00.209Z,90.91
2022-08-17T03:18:28.276Z,90.94
2022-08-17T03:21:00.062Z,90.93
2022-08-17T03:23:29.572Z,90.97
2022-08-17T03:25:58.222Z,90.95
2022-08-17T03:28:26.224Z,90.97
2022-08-17T03:30:53.956Z,91.09
2022-08-17T03:33:21.860Z,91.10
2022-08-17T03:35:50.097Z,91.10
2022-08-17T03:38:18.300Z,91.10
2022-08-17T03:40:58.554Z,91.12
2022-08-17T03:43:30.162Z,91.26
2022-08-17T03:46:34.303Z,91.28
2022-08-17T03:49:26.597Z,91.19
2022-08-17T03:52:14.377Z,91.22
2022-08-17T03:55:03.034Z,91.31
2022-08-17T03:57:32.387Z,91.37
2022-08-17T04:00:00.113Z,91.36
2022-08-17T04:02:31.983Z,91.30
2022-08-17T04:05:00.456Z,91.49
2022-08-17T04:07:30.456Z,91.43
2022-08-17T04:09:59.532Z,91.48
2022-08-17T04:12:31.658Z,91.54
2022-08-17T04:14:59.649Z,91.57
2022-08-17T04:17:29.383Z,91.55
2022-08-17T04:19:57.355Z,91.64
2022-08-17T04:22:32.376Z,91.63
2022-08-17T04:25:16.250Z,91.84
2022-08-17T04:27:44.201Z,91.72
2022-08-17T04:30:13.371Z,91.64
2022-08-17T04:33:04.974Z,91.63
2022-08-17T04:35:38.638Z,91.74
2022-08-17T04:38:07.817Z,91.78
2022-08-17T04:40:54.869Z,91.81
2022-08-17T04:43:24.910Z,91.89
2022-08-17T04:45:57.153Z,91.94
2022-08-17T04:48:36.308Z,91.94
2022-08-17T04:51:13.653Z,92.07
2022-08-17T04:53:44.702Z,92.11
2022-08-17T04:56:18.304Z,92.14
2022-08-17T04:58:49.828Z,92.14
2022-08-17T05:01:23.912Z,92.13
2022-08-17T05:03:59.249Z,92.19
2022-08-17T05:06:28.811Z,92.27
2022-08-17T05:08:58.250Z,92.34
2022-08-17T05:11:27.878Z,92.50
2022-08-17T05:13:57.218Z,92.46
2022-08-17T05:16:27.373Z,92.47
2022-08-17T05:18:55.754Z,92.44
2022-08-17T05:21:23.777Z,92.62
2022-08-17T05:23:54.759Z,92.57
2022-08-17T05:26:27.356Z,92.67
2022-08-17T05:29:00.507Z,92.50
2022-08-17T05:31:31.107Z,92.53
2022-08-17T05:33:59.454Z,92.50
2022-08-17T05:36:42.114Z,92.49
2022-08-17T05:39:15.990Z,92.49
2022-08-17T05:41:47.551Z,92.32
2022-08-17T05:44:15.989Z,92.23
2022-08-17T05:46:49.237Z,92.00
2022-08-17T05:49:22.690Z,91.78
2022-08-17T05:52:05.590Z,91.61
2022-08-17T05:55:04.626Z,91.47
2022-08-17T05:57:59.950Z,91.16
2022-08-17T06:00:42.149Z,90.95
2022-08-17T06:03:26.344Z,90.61
2022-08-17T06:06:00.595Z,90.42
2022-08-17T06:08:48.245Z,90.29
2022-08-17T06:11:41.575Z,90.08
2022-08-17T06:14:34.495Z,89.64
2022-08-17T06:17:11.585Z,89.46
2022-08-17T06:19:39.151Z,89.27
2022-08-17T06:22:08.880Z,88.86
2022-08-17T06:24:50.097Z,88.57
2022-08-17T06:27:26.603Z,88.08
2022-08-17T06:30:16.812Z,87.89
2022-08-17T06:32:47.711Z,87.56
2022-08-17T06:35:31.843Z,87.30
2022-08-17T06:38:34.968Z,87.05
2022-08-17T06:41:22.044Z,87.04
2022-08-17T06:44:44.766Z,86.50
2022-08-17T06:47:28.949Z,86.25
2022-08-17T06:50:20.571Z,85.64
2022-08-17T06:52:57.673Z,85.06
2022-08-17T06:55:38.160Z,84.13
2022-08-17T06:58:16.355Z,84.64
2022-08-17T07:00:47.715Z,84.05
2022-08-17T07:03:24.395Z,83.49
2022-08-17T07:05:57.138Z,82.72
2022-08-17T07:08:29.968Z,82.42
2022-08-17T07:11:05.263Z,81.45
2022-08-17T07:13:51.669Z,81.58
2022-08-17T07:16:30.878Z,81.47
2022-08-17T07:19:00.092Z,81.41
2022-08-17T07:21:56.413Z,81.61
2022-08-17T07:24:33.266Z,80.87
2022-08-17T07:27:13.771Z,81.12
2022-08-17T07:29:53.630Z,80.91
2022-08-17T07:32:27.020Z,79.72
2022-08-17T07:35:10.733Z,79.40
2022-08-17T07:37:41.716Z,79.37
2022-08-17T07:40:26.590Z,78.95
2022-08-17T07:43:04.981Z,78.58
2022-08-17T07:45:53.176Z,78.41
2022-08-17T07:48:25.446Z,78.30
2022-08-17T07:50:55.035Z,77.83
2022-08-17T07:53:26.231Z,76.94
2022-08-17T07:55:55.148Z,77.16
2022-08-17T07:58:24.144Z,76.89
2022-08-17T08:01:15.452Z,76.31
2022-08-17T08:03:46.415Z,75.46
2022-08-17T08:06:24.121Z,74.27
2022-08-17T08:08:56.539Z,74.48
2022-08-17T08:11:38.362Z,75.20
2022-08-17T08:14:33.666Z,74.82
2022-08-17T08:17:05.728Z,73.99
2022-08-17T08:19:34.779Z,73.88
2022-08-17T08:22:11.165Z,74.31
2022-08-17T08:24:51.640Z,73.56
2022-08-17T08:27:34.789Z,73.29
2022-08-17T08:30:40.743Z,73.06
2022-08-17T08:33:11.048Z,72.70
2022-08-17T08:36:02.907Z,72.45
2022-08-17T08:38:55.943Z,72.23
2022-08-17T08:41:38.683Z,71.36
2022-08-17T08:44:15.856Z,70.88
2022-08-17T08:47:18.387Z,70.96
2022-08-17T08:50:04.030Z,70.76
2022-08-17T08:52:59.764Z,71.39
2022-08-17T08:55:49.289Z,69.82
2022-08-17T08:58:31.816Z,70.54
2022-08-17T09:01:23.258Z,70.03
2022-08-17T09:04:16.969Z,70.35
2022-08-17T09:07:23.280Z,70.30
2022-08-17T09:10:15.985Z,69.31
2022-08-17T09:13:17.687Z,69.56
2022-08-17T09:15:50.468Z,69.66
2022-08-17T09:19:00.309Z,69.46
2022-08-17T09:21:23.675Z,67.96
2022-08-17T09:24:12.728Z,68.34
2022-08-17T09:26:56.416Z,68.43
2022-08-17T09:29:27.086Z,68.69
2022-08-17T09:32:01.758Z,68.62
2022-08-17T09:34:47.046Z,67.91
2022-08-17T09:37:46.604Z,68.26
2022-08-17T09:40:55.651Z,68.11
2022-08-17T09:43:44.854Z,67.26
2022-08-17T09:46:37.472Z,66.73
2022-08-17T09:49:23.162Z,66.73
2022-08-17T09:51:58.704Z,66.09
2022-08-17T09:54:40.208Z,65.64
2022-08-17T09:57:32.144Z,65.39
2022-08-17T10:00:08.275Z,65.64
2022-08-17T10:02:57.933Z,65.25
2022-08-17T10:06:13.347Z,65.49
2022-08-17T10:09:07.585Z,64.68
2022-08-17T10:11:57.500Z,64.84
2022-08-17T10:14:36.555Z,63.51
2022-08-17T10:17:16.974Z,63.51
2022-08-17T10:19:56.789Z,63.35
2022-08-17T10:23:00.014Z,63.27
2022-08-17T10:25:55.049Z,63.06
2022-08-17T10:28:30.327Z,63.52
2022-08-17T10:31:33.730Z,62.90
2022-08-17T10:34:22.848Z,62.53
2022-08-17T10:37:11.647Z,62.08
2022-08-17T10:39:52.056Z,62.05
2022-08-17T10:42:43.820Z,62.58
2022-08-17T10:45:31.584Z,60.61
2022-08-17T10:48:20.723Z,60.32
2022-08-17T10:51:02.000Z,59.08
2022-08-17T10:53:32.660Z,58.71
2022-08-17T10:56:12.823Z,58.67
2022-08-17T10:58:50.785Z,58.17
2022-08-17T11:01:18.594Z,58.46
2022-08-17T11:03:58.520Z,57.92
2022-08-17T11:06:51.050Z,58.12
2022-08-17T11:09:24.839Z,57.90
2022-08-17T11:11:55.580Z,57.72
2022-08-17T11:14:38.451Z,57.80
2022-08-17T11:17:20.177Z,56.33
2022-08-17T11:20:06.121Z,57.89
2022-08-17T11:22:59.160Z,56.94
2022-08-17T11:25:54.766Z,56.47
2022-08-17T11:28:28.104Z,55.97
2022-08-17T11:31:06.099Z,56.25
2022-08-17T11:33:36.808Z,56.13
2022-08-17T11:36:15.378Z,56.09
2022-08-17T11:39:13.445Z,56.75
2022-08-17T11:41:51.151Z,56.14
2022-08-17T11:44:25.288Z,54.67
2022-08-17T11:47:35.436Z,54.53
2022-08-17T11:50:44.428Z,55.89
2022-08-17T11:53:40.136Z,55.48
2022-08-17T11:56:10.614Z,56.17
2022-08-17T11:58:43.134Z,55.85
2022-08-17T12:01:23.645Z,55.63
2022-08-17T12:03:58.963Z,53.40
2022-08-17T12:07:07.227Z,54.94
2022-08-17T12:09:40.358Z,53.12
2022-08-17T12:12:16.856Z,53.86
2022-08-17T12:15:09.972Z,54.86
2022-08-17T12:17:40.355Z,54.45
2022-08-17T12:20:33.999Z,53.56
2022-08-17T12:23:25.843Z,54.61
2022-08-17T12:26:26.061Z,53.50
2022-08-17T12:29:00.071Z,52.84
2022-08-17T12:31:34.519Z,53.62
2022-08-17T12:34:04.843Z,54.51
2022-08-17T12:36:33.559Z,53.74
2022-08-17T12:39:14.182Z,52.08
2022-08-17T12:41:46.964Z,52.93
2022-08-17T12:44:18.782Z,52.44
2022-08-17T12:47:20.970Z,52.31
2022-08-17T12:49:55.076Z,52.37
2022-08-17T12:52:30.408Z,52.80
2022-08-17T12:55:02.786Z,52.45
2022-08-17T12:57:38.123Z,53.11
2022-08-17T13:00:12.180Z,52.83
2022-08-17T13:02:47.264Z,52.40
2022-08-17T13:05:20.481Z,52.59
2022-08-17T13:07:48.795Z,52.94
2022-08-17T13:10:48.474Z,52.06
2022-08-17T13:13:26.908Z,51.30
2022-08-17T13:16:00.646Z,51.52
2022-08-17T13:18:49.940Z,52.07
2022-08-17T13:21:26.881Z,54.27
2022-08-17T13:24:00.664Z,54.65
2022-08-17T13:26:36.751Z,52.94
2022-08-17T13:29:24.006Z,52.25
2022-08-17T13:32:15.182Z,52.95
2022-08-17T13:35:13.015Z,53.40
2022-08-17T13:37:37.116Z,53.76
2022-08-17T13:40:10.855Z,53.33
2022-08-17T13:42:55.639Z,51.86
2022-08-17T13:45:35.378Z,52.55
2022-08-17T13:48:32.828Z,52.43
2022-08-17T13:51:00.537Z,52.91
2022-08-17T13:53:35.714Z,51.74
2022-08-17T13:56:37.587Z,52.29
2022-08-17T13:59:36.366Z,50.77
2022-08-17T14:02:21.176Z,51.17
2022-08-17T14:04:49.414Z,51.34
2022-08-17T14:07:19.360Z,51.02
2022-08-17T14:10:01.555Z,50.81
2022-08-17T14:12:32.290Z,51.36
2022-08-17T14:15:00.608Z,51.82
2022-08-17T14:17:29.512Z,52.04
2022-08-17T14:19:58.568Z,52.55
2022-08-17T14:22:32.525Z,53.99
2022-08-17T14:25:01.781Z,53.59
2022-08-17T14:27:33.519Z,54.78
2022-08-17T14:30:10.463Z,53.83
2022-08-17T14:32:41.453Z,53.88
2022-08-17T14:35:11.245Z,54.72
2022-08-17T14:37:39.776Z,54.55
2022-08-17T14:40:11.987Z,55.00
2022-08-17T14:42:42.741Z,54.58
2022-08-17T14:45:30.207Z,54.90
2022-08-17T14:48:04.187Z,54.52
2022-08-17T14:50:35.411Z,54.92
2022-08-17T14:53:05.596Z,55.20
2022-08-17T14:55:33.647Z,55.54
2022-08-17T14:58:01.443Z,55.31
2022-08-17T15:00:29.170Z,55.82
2022-08-17T15:02:59.263Z,55.32
2022-08-17T15:05:31.772Z,55.21
2022-08-17T15:08:01.218Z,55.85
2022-08-17T15:10:30.451Z,55.98
2022-08-17T15:13:00.507Z,56.05
2022-08-17T15:15:29.078Z,57.21
2022-08-17T15:17:59.895Z,58.08
2022-08-17T15:20:30.199Z,58.45
2022-08-17T15:22:59.332Z,59.92
2022-08-17T15:25:30.175Z,61.21
2022-08-17T15:27:59.000Z,61.16
2022-08-17T15:30:28.202Z,60.92
2022-08-17T15:32:58.648Z,62.11
2022-08-17T15:35:29.899Z,62.77
2022-08-17T15:38:10.637Z,62.83
2022-08-17T15:40:43.170Z,62.55
2022-08-17T15:43:19.289Z,62.20
2022-08-17T15:45:58.770Z,62.71
2022-08-17T15:48:43.561Z,63.64
2022-08-17T15:51:15.498Z,64.36
2022-08-17T15:53:47.304Z,65.70
2022-08-17T15:56:16.532Z,66.35
2022-08-17T15:58:46.910Z,66.53
2022-08-17T16:01:18.659Z,66.66
2022-08-17T16:04:14.900Z,68.11
2022-08-17T16:06:53.163Z,68.62
2022-08-17T16:09:20.839Z,68.69
2022-08-17T16:11:53.659Z,68.89
2022-08-17T16:14:24.519Z,69.31
2022-08-17T16:17:00.542Z,69.90
2022-08-17T16:19:28.341Z,70.54
2022-08-17T16:21:56.095Z,70.42
2022-08-17T16:24:23.807Z,69.85
2022-08-17T16:26:51.510Z,69.66
2022-08-17T16:29:19.219Z,69.26
2022-08-17T16:31:48.042Z,69.18
2022-08-17T16:34:18.653Z,68.87
2022-08-17T16:36:50.544Z,68.62
2022-08-17T16:39:26.637Z,68.51
2022-08-17T16:41:56.329Z,68.22
2022-08-17T16:44:27.558Z,68.23
2022-08-17T16:46:56.019Z,68.33
2022-08-17T16:49:35.820Z,67.74
2022-08-17T16:52:10.103Z,69.13
2022-08-17T16:54:43.930Z,69.05
2022-08-17T16:57:13.536Z,68.10
2022-08-17T16:59:44.993Z,67.92
2022-08-17T17:02:23.596Z,67.17
2022-08-17T17:05:13.222Z,67.24
2022-08-17T17:08:03.562Z,67.85
2022-08-17T17:10:39.878Z,68.22
2022-08-17T17:13:13.198Z,69.16
2022-08-17T17:16:26.478Z,69.93
2022-08-17T17:19:09.441Z,70.51
2022-08-17T17:21:51.986Z,70.69
2022-08-17T17:24:35.234Z,71.01
2022-08-17T17:27:14.978Z,71.15
2022-08-17T17:30:07.646Z,71.65
2022-08-17T17:32:44.866Z,71.75
2022-08-17T17:35:17.416Z,72.31
2022-08-17T17:37:46.872Z,72.76
2022-08-17T17:40:23.165Z,73.14
2022-08-17T17:42:53.798Z,73.73
2022-08-17T17:45:31.289Z,74.24
2022-08-17T17:47:58.997Z,74.52
2022-08-17T17:50:37.173Z,74.90
2022-08-17T17:53:15.406Z,75.39
2022-08-17T17:55:52.534Z,75.39
2022-08-17T17:58:32.231Z,75.57
2022-08-17T18:01:31.721Z,75.98
2022-08-17T18:03:59.461Z,76.13
2022-08-17T18:06:48.414Z,76.39
2022-08-17T18:09:43.882Z,76.91
2022-08-17T18:12:45.847Z,76.97
2022-08-17T18:15:25.531Z,76.97
2022-08-17T18:18:22.766Z,77.11
2022-08-17T18:20:56.256Z,76.99
2022-08-17T18:23:27.976Z,77.02
2022-08-17T18:25:58.793Z,77.23
2022-08-17T18:28:31.750Z,77.26
2022-08-17T18:31:22.714Z,77.54
2022-08-17T18:33:54.459Z,77.79
2022-08-17T18:36:39.927Z,77.77
2022-08-17T18:39:14.473Z,77.93
2022-08-17T18:41:45.218Z,77.98
2022-08-17T18:44:32.866Z,78.24
2022-08-17T18:47:15.014Z,78.30
2022-08-17T18:49:56.280Z,78.31
2022-08-17T18:52:30.393Z,78.47
2022-08-17T18:55:11.818Z,78.50
2022-08-17T18:57:53.456Z,78.64
2022-08-17T19:00:40.491Z,78.93
2022-08-17T19:03:20.388Z,79.22
2022-08-17T19:05:52.406Z,79.41
2022-08-17T19:08:29.062Z,79.44
2022-08-17T19:11:19.316Z,79.60
2022-08-17T19:13:55.691Z,79.92
2022-08-17T19:16:32.415Z,80.11
2022-08-17T19:19:16.338Z,80.04
2022-08-17T19:22:08.883Z,80.14
2022-08-17T19:24:47.419Z,80.30
2022-08-17T19:27:20.956Z,80.40
2022-08-17T19:30:07.762Z,80.54
2022-08-17T19:32:36.851Z,80.60
2022-08-17T19:35:07.661Z,80.71
2022-08-17T19:38:13.063Z,80.97
2022-08-17T19:40:53.965Z,81.00
2022-08-17T19:43:51.415Z,80.95
2022-08-17T19:46:37.072Z,81.21
2022-08-17T19:49:09.982Z,81.41
2022-08-17T19:51:52.104Z,81.42
2022-08-17T19:54:24.779Z,81.63
2022-08-17T19:57:27.874Z,81.93
2022-08-17T20:00:11.830Z,81.92
2022-08-17T20:02:55.250Z,82.30
2022-08-17T20:05:30.726Z,82.20
2022-08-17T20:08:05.877Z,82.57
2022-08-17T20:11:21.327Z,82.53
2022-08-17T20:14:15.189Z,82.67
2022-08-17T20:16:43.152Z,82.77
2022-08-17T20:19:31.931Z,82.94
2022-08-17T20:22:16.998Z,83.11
2022-08-17T20:25:11.559Z,83.08
2022-08-17T20:28:05.557Z,83.18
2022-08-17T20:30:42.327Z,83.52
2022-08-17T20:33:34.993Z,83.67
2022-08-17T20:36:11.283Z,83.75
2022-08-17T20:38:43.044Z,83.86
2022-08-17T20:41:16.740Z,83.98
2022-08-17T20:43:55.247Z,84.03
2022-08-17T20:46:22.932Z,84.06
2022-08-17T20:48:55.391Z,84.27
2022-08-17T20:51:32.621Z,84.46
2022-08-17T20:54:18.760Z,84.66
2022-08-17T20:56:48.929Z,84.70
2022-08-17T20:59:24.167Z,84.68
2022-08-17T21:02:17.647Z,84.75
2022-08-17T21:04:49.942Z,84.88
2022-08-17T21:07:42.879Z,85.06
2022-08-17T21:10:23.579Z,85.17
2022-08-17T21:13:00.457Z,85.34
2022-08-17T21:15:36.128Z,85.34
2022-08-17T21:18:19.236Z,85.45
2022-08-17T21:21:20.621Z,85.65
2022-08-17T21:24:11.779Z,85.58
2022-08-17T21:27:21.874Z,85.92
2022-08-17T21:30:06.694Z,85.93
2022-08-17T21:32:42.079Z,86.00
2022-08-17T21:35:25.283Z,86.12
2022-08-17T21:38:00.935Z,86.22
2022-08-17T21:40:32.196Z,86.29
2022-08-17T21:43:23.549Z,86.38
2022-08-17T21:45:58.837Z,86.49
2022-08-17T21:48:29.695Z,86.59
2022-08-17T21:51:12.930Z,86.67
2022-08-17T21:53:50.232Z,86.77
2022-08-17T21:56:29.510Z,86.94
2022-08-17T21:59:16.116Z,87.00
2022-08-17T22:01:53.093Z,86.95
2022-08-17T22:04:27.672Z,87.11
2022-08-17T22:06:57.875Z,87.11
2022-08-17T22:09:51.237Z,87.05
2022-08-17T22:12:21.715Z,87.18
2022-08-17T22:14:55.569Z,87.14
2022-08-17T22:17:36.582Z,87.17
2022-08-17T22:20:20.877Z,87.29
2022-08-17T22:23:08.760Z,87.31
2022-08-17T22:25:40.864Z,87.32
2022-08-17T22:28:11.726Z,87.35
2022-08-17T22:31:03.322Z,87.25
2022-08-17T22:33:45.233Z,87.29
2022-08-17T22:36:31.310Z,87.38
2022-08-17T22:39:26.264Z,87.41
2022-08-17T22:41:59.163Z,87.44
2022-08-17T22:44:44.848Z,87.49
2022-08-17T22:47:16.391Z,87.61
2022-08-17T22:49:56.681Z,87.59
2022-08-17T22:52:32.588Z,87.65
2022-08-17T22:55:35.523Z,87.67
2022-08-17T22:58:29.418Z,87.78
2022-08-17T23:00:57.078Z,87.78
2022-08-17T23:03:27.210Z,87.75
2022-08-17T23:06:10.786Z,87.90
2022-08-17T23:08:56.863Z,87.88
2022-08-17T23:11:36.545Z,87.99
2022-08-17T23:14:19.352Z,87.96
2022-08-17T23:16:50.156Z,87.98
2022-08-17T23:19:21.383Z,88.07
2022-08-17T23:21:51.030Z,88.13
2022-08-17T23:24:25.369Z,88.21
2022-08-17T23:26:53.919Z,88.42
2022-08-17T23:29:22.634Z,88.35
2022-08-17T23:31:52.578Z,88.34
2022-08-17T23:34:20.617Z,88.37
2022-08-17T23:36:52.627Z,88.37
2022-08-17T23:39:24.651Z,88.41
2022-08-17T23:41:59.036Z,88.45
2022-08-17T23:44:27.411Z,88.38
2022-08-17T23:46:55.533Z,88.37
2022-08-17T23:49:25.199Z,88.37
2022-08-17T23:51:56.214Z,88.38
2022-08-17T23:54:31.444Z,88.53
2022-08-17T23:57:00.702Z,88.51
2022-08-17T23:59:29.334Z,88.52
